Time;durP1;ratioP1;P1;durP2;ratioP2;P2;SDS_P1;SDS_P2;PMS_P1;PMS_P2;Temp;Humidity;BMP_temperature;BMP_pressure;BME280_temperature;BME280_humidity;BME280_pressure;Samples;Min_cycle;Max_cycle;Signal;HPM_P1;HPM_P2
2023/03/25 00:02:29;;;;;;;7.03;3.15;;;;;;;17.41;45.29;98862.34;7659179;32;39958;-84
2023/03/25 00:06:46;;;;;;;5.93;3.20;;;;;;;17.44;45.45;98869.12;7659044;32;39972;-84
2023/03/25 00:11:04;;;;;;;6.78;3.70;;;;;;;17.40;45.84;98871.78;7890460;27;38936;-83
2023/03/25 00:15:21;;;;;;;5.55;3.62;;;;;;;17.26;46.61;98888.59;7631470;32;37540;-83
2023/03/25 00:19:37;;;;;;;8.18;3.97;;;;;;;17.22;46.93;98893.16;7632830;32;40333;-84
2023/03/25 00:23:54;;;;;;;7.90;3.90;;;;;;;17.07;47.85;98893.78;7632737;32;40012;-84
2023/03/25 00:28:12;;;;;;;7.07;4.30;;;;;;;17.19;47.63;98888.31;7632543;32;38729;-84
2023/03/25 00:32:28;;;;;;;7.62;3.90;;;;;;;17.11;48.36;98899.41;7631590;32;37660;-84
2023/03/25 00:36:45;;;;;;;7.18;3.80;;;;;;;17.10;48.48;98901.38;7632660;32;39175;-84
2023/03/25 00:41:24;;;;;;;6.78;3.40;;;;;;;16.87;49.16;98909.97;7632201;32;39611;-84
2023/03/25 00:45:41;;;;;;;5.68;3.17;;;;;;;16.35;50.12;98921.28;7632561;32;37751;-84
2023/03/25 00:49:57;;;;;;;5.00;2.60;;;;;;;15.82;51.74;98915.16;7632539;32;36725;-84
2023/03/25 00:54:13;;;;;;;4.43;2.60;;;;;;;15.82;51.42;98919.88;7632504;32;40150;-84
2023/03/25 00:58:29;;;;;;;5.18;2.80;;;;;;;15.84;51.86;98912.09;7632321;32;40826;-84
2023/03/25 01:02:47;;;;;;;5.07;2.60;;;;;;;15.96;51.80;98923.22;7632361;32;37852;-84
2023/03/25 01:07:04;;;;;;;5.35;2.42;;;;;;;15.93;52.36;98932.09;7631455;32;37883;-84
2023/03/25 01:11:22;;;;;;;5.12;2.37;;;;;;;15.83;53.07;98921.47;7631275;32;39399;-84
2023/03/25 01:15:39;;;;;;;3.92;2.70;;;;;;;15.65;54.19;98926.97;7631966;32;38997;-84
2023/03/25 01:19:56;;;;;;;5.43;3.15;;;;;;;15.36;55.80;98936.72;7631907;32;38038;-85
2023/03/25 01:24:14;;;;;;;5.93;3.67;;;;;;;14.90;58.10;98938.19;7631994;32;37052;-84
2023/03/25 01:28:30;;;;;;;7.30;4.25;;;;;;;14.74;59.52;98934.28;7630624;32;41465;-84
2023/03/25 01:32:46;;;;;;;6.37;4.05;;;;;;;14.50;61.15;98935.47;7631928;32;40091;-84
2023/03/25 01:37:03;;;;;;;8.52;4.75;;;;;;;14.75;60.65;98936.69;7631894;32;37615;-84
2023/03/25 01:41:19;;;;;;;9.90;5.20;;;;;;;14.48;63.11;98936.94;7631894;32;37164;-84
2023/03/25 01:45:36;;;;;;;9.18;5.28;;;;;;;14.12;65.72;98927.75;7631538;32;40175;-83
2023/03/25 01:49:53;;;;;;;11.30;5.65;;;;;;;14.16;66.17;98926.03;7631205;32;39924;-85
2023/03/25 01:54:11;;;;;;;10.75;5.93;;;;;;;14.14;66.93;98936.47;7631683;32;37636;-84
2023/03/25 01:58:28;;;;;;;9.77;5.80;;;;;;;13.52;69.61;98929.88;7630588;32;36424;-85
2023/03/25 02:02:45;;;;;;;11.15;6.37;;;;;;;13.55;69.99;98930.38;7631583;32;39405;-84
2023/03/25 02:07:02;;;;;;;10.55;6.12;;;;;;;13.23;72.49;98933.03;7630317;32;39881;-84
2023/03/25 02:11:18;;;;;;;10.82;6.20;;;;;;;13.51;71.67;98925.53;7629978;32;38704;-84
2023/03/25 02:16:05;;;;;;;8.77;5.47;;;;;;;13.55;71.96;98931.19;7630820;32;38061;-84
2023/03/25 02:21:07;;;;;;;9.15;5.40;;;;;;;13.20;72.38;98935.59;7629982;32;39380;-84
2023/03/25 02:25:38;;;;;;;10.00;5.18;;;;;;;13.38;71.47;98926.37;7628021;32;40878;-84
2023/03/25 02:30:19;;;;;;;7.43;4.32;;;;;;;12.85;72.79;98929.78;7629742;32;38749;-84
2023/03/25 02:34:47;;;;;;;8.68;5.37;;;;;;;13.36;70.28;98912.22;7629337;32;37640;-84
2023/03/25 02:39:22;;;;;;;8.13;5.25;;;;;;;13.25;70.99;98900.69;7630450;32;39375;-84
2023/03/25 02:43:50;;;;;;;9.27;4.90;;;;;;;13.55;69.54;98905.72;7630112;32;39951;-85
2023/03/25 02:48:14;;;;;;;8.30;4.50;;;;;;;13.44;70.02;98918.87;7629382;32;38747;-86
2023/03/25 02:52:38;;;;;;;8.43;4.47;;;;;;;13.23;70.76;98921.25;7629095;32;37334;-85
2023/03/25 02:56:56;;;;;;;9.85;5.18;;;;;;;12.81;71.56;98920.59;7629305;32;40233;-84
2023/03/25 03:01:13;;;;;;;7.72;4.50;;;;;;;12.35;74.00;98912.25;7630397;32;38834;-85
2023/03/25 03:05:32;;;;;;;7.15;4.40;;;;;;;12.24;74.57;98919.03;7630086;32;38084;-81
2023/03/25 03:10:09;;;;;;;6.62;4.78;;;;;;;12.56;72.87;98911.84;7604111;32;37649;-84
2023/03/25 03:15:03;;;;;;;7.68;4.07;;;;;;;12.29;73.27;98916.19;7616095;32;39376;-84
2023/03/25 03:19:22;;;;;;;;;;;;;;;12.63;72.72;98917.69;7630259;32;40811;-84
2023/03/25 03:23:54;;;;;;;7.90;3.85;;;;;;;12.51;72.86;98928.34;7629637;32;37751;-84
2023/03/25 03:28:28;;;;;;;7.43;4.37;;;;;;;12.51;72.56;98915.47;7629745;32;37308;-84
2023/03/25 03:33:01;;;;;;;8.75;3.70;;;;;;;12.16;74.03;98914.31;7629379;32;39032;-85
2023/03/25 03:37:25;;;;;;;7.40;3.60;;;;;;;12.21;73.36;98919.63;7628395;32;40010;-84
2023/03/25 03:41:42;;;;;;;6.07;3.83;;;;;;;12.73;71.46;98920.22;7628198;32;38763;-85
2023/03/25 03:46:04;;;;;;;6.65;3.72;;;;;;;12.55;72.40;98918.41;7628292;32;37924;-84
2023/03/25 03:50:31;;;;;;;5.50;3.47;;;;;;;12.65;71.56;98929.13;7632075;32;39384;-84
2023/03/25 03:54:55;;;;;;;6.07;3.53;;;;;;;12.28;73.68;98930.16;7631939;32;40724;-84
2023/03/25 03:59:34;;;;;;;5.80;3.47;;;;;;;12.59;71.92;98933.91;7611314;32;38212;-84
2023/03/25 04:04:01;;;;;;;5.80;3.30;;;;;;;12.58;71.82;98929.53;7632006;32;37661;-85
2023/03/25 04:08:51;;;;;;;6.15;3.50;;;;;;;12.64;71.27;98938.47;7633009;32;39349;-84
2023/03/25 04:13:13;;;;;;;7.70;3.50;;;;;;;12.12;72.77;98955.06;7632815;32;40103;-84
2023/03/25 04:17:31;;;;;;;7.70;3.83;;;;;;;12.59;71.21;98949.50;7631542;32;38152;-84
2023/03/25 04:21:48;;;;;;;6.05;3.40;;;;;;;12.72;70.86;98964.28;7632728;32;36004;-84
2023/03/25 04:26:04;;;;;;;7.28;3.67;;;;;;;12.34;72.60;98970.75;7632816;32;40086;-85
2023/03/25 04:30:21;;;;;;;6.35;3.97;;;;;;;12.12;73.90;98978.84;7632172;32;40563;-83
2023/03/25 04:34:37;;;;;;;8.85;3.90;;;;;;;12.37;72.81;98970.16;7631992;32;38027;-84
2023/03/25 04:38:54;;;;;;;8.43;3.87;;;;;;;12.15;73.45;98978.25;7632657;32;37097;-84
2023/03/25 04:43:15;;;;;;;7.80;3.90;;;;;;;12.53;72.37;98983.53;7632667;32;39487;-84
2023/03/25 04:47:31;;;;;;;5.65;3.58;;;;;;;12.80;71.15;98976.41;7618997;32;40651;-83
2023/03/25 04:51:50;;;;;;;8.57;3.78;;;;;;;12.63;70.57;98977.84;7632153;32;38742;-83
2023/03/25 04:56:14;;;;;;;5.47;3.50;;;;;;;12.73;70.16;98977.63;7631332;32;37527;-84
2023/03/25 05:00:31;;;;;;;8.52;3.53;;;;;;;12.66;70.67;98965.47;7631558;32;39952;-84
2023/03/25 05:04:47;;;;;;;5.15;3.22;;;;;;;13.00;68.95;98970.47;7632379;32;40051;-84
2023/03/25 05:09:06;;;;;;;7.32;3.30;;;;;;;12.91;69.07;98981.34;7630946;32;37868;-84
2023/03/25 05:13:22;;;;;;;6.25;3.47;;;;;;;13.07;68.76;98987.31;7630990;32;37073;-84
2023/03/25 05:17:40;;;;;;;5.00;3.33;;;;;;;13.07;68.54;98987.31;7632026;32;40144;-84
2023/03/25 05:21:56;;;;;;;5.00;3.20;;;;;;;12.49;70.13;98988.78;7632183;32;40721;-84
2023/03/25 05:26:13;;;;;;;5.97;3.22;;;;;;;12.74;69.24;98979.25;7632085;32;37622;-84
2023/03/25 05:30:31;;;;;;;6.60;3.60;;;;;;;12.74;69.31;98984.72;7631716;32;37842;-84
2023/03/25 05:34:48;;;;;;;5.22;3.45;;;;;;;12.89;68.75;98980.84;7631441;32;40220;-83
2023/03/25 05:39:05;;;;;;;7.05;3.72;;;;;;;12.52;69.49;99001.03;7631896;32;39587;-84
2023/03/25 05:43:21;;;;;;;5.22;3.45;;;;;;;12.64;69.26;99003.25;7632027;32;37640;-85
2023/03/25 05:47:38;;;;;;;6.90;3.28;;;;;;;12.82;68.30;99001.53;7629646;32;37136;-85
2023/03/25 05:51:55;;;;;;;4.60;2.85;;;;;;;12.94;67.46;98999.88;7630271;32;39247;-83
2023/03/25 05:56:12;;;;;;;6.68;3.20;;;;;;;12.91;66.94;99007.91;7631631;32;40094;-84
2023/03/25 06:00:29;;;;;;;5.20;3.15;;;;;;;13.11;66.63;99012.13;7631394;32;37850;-85
2023/03/25 06:04:49;;;;;;;4.55;3.10;;;;;;;13.07;66.62;99020.16;7630723;32;37932;-84
2023/03/25 06:09:06;;;;;;;8.52;4.57;;;;;;;12.69;67.21;99025.03;7630198;32;39296;-83
2023/03/25 06:13:23;;;;;;;4.97;3.10;;;;;;;12.54;67.21;99026.16;7631384;32;40025;-84
2023/03/25 06:17:40;;;;;;;6.30;3.10;;;;;;;12.94;66.02;99026.44;7631338;32;38745;-83
2023/03/25 06:21:56;;;;;;;4.72;3.05;;;;;;;12.29;68.24;99033.72;7631460;32;37399;-85
2023/03/25 06:26:13;;;;;;;5.32;2.87;;;;;;;12.22;68.11;99033.31;7631267;32;40156;-86
2023/03/25 06:30:29;;;;;;;6.55;3.10;;;;;;;12.39;67.73;99028.06;7630863;32;39958;-84
2023/03/25 06:34:45;;;;;;;4.90;3.03;;;;;;;12.61;66.60;99018.37;7631225;32;38712;-83
2023/03/25 06:39:04;;;;;;;5.82;3.45;;;;;;;12.87;65.76;99015.13;7631193;32;37517;-87
2023/03/25 06:43:20;;;;;;;4.10;2.85;;;;;;;12.13;68.32;99040.59;7630984;32;38358;-83
2023/03/25 06:47:36;;;;;;;4.57;2.83;;;;;;;12.50;67.39;99038.81;7630735;32;40016;-85
2023/03/25 06:51:52;;;;;;;5.43;3.35;;;;;;;12.05;67.88;99046.72;7630227;32;37855;-84
2023/03/25 06:56:09;;;;;;;4.03;3.00;;;;;;;12.35;67.77;99050.84;7630160;32;36779;-84
2023/03/25 07:00:27;;;;;;;4.18;2.40;;;;;;;12.44;66.88;99051.78;7629128;32;39413;-84
2023/03/25 07:04:43;;;;;;;3.70;2.60;;;;;;;12.53;66.11;99038.22;7630247;32;40878;-84
2023/03/25 07:09:00;;;;;;;3.25;2.50;;;;;;;12.88;65.40;99049.53;7628455;32;38064;-85
2023/03/25 07:13:16;;;;;;;3.55;2.65;;;;;;;12.64;65.82;99061.53;7628914;32;37047;-84
2023/03/25 07:17:32;;;;;;;3.85;2.90;;;;;;;12.15;67.72;99071.94;7629193;32;39184;-85
2023/03/25 07:21:51;;;;;;;3.65;2.50;;;;;;;12.02;66.91;99070.81;7631042;32;39616;-86
2023/03/25 07:26:07;;;;;;;9.07;2.67;;;;;;;12.18;65.43;99065.09;7633590;32;38340;-79
2023/03/25 07:30:23;;;;;;;4.03;2.65;;;;;;;12.71;64.53;99052.88;7632374;32;37182;-73
2023/03/25 07:34:40;;;;;;;4.20;2.80;;;;;;;12.15;65.04;99061.03;7633517;32;39421;-78
2023/03/25 07:38:56;;;;;;;4.72;3.03;;;;;;;12.60;63.71;99065.94;7633337;32;40879;-78
2023/03/25 07:43:12;;;;;;;3.28;2.60;;;;;;;12.66;63.76;99074.84;7633332;32;37916;-81
2023/03/25 07:47:28;;;;;;;3.47;2.65;;;;;;;13.34;63.40;99065.00;7633309;32;38122;-80
2023/03/25 07:51:45;;;;;;;4.32;2.60;;;;;;;13.29;63.32;99067.84;7633381;32;39052;-81
2023/03/25 07:56:01;;;;;;;3.67;2.75;;;;;;;13.27;61.96;99072.81;7633216;32;39990;-82
2023/03/25 08:00:18;;;;;;;5.70;3.03;;;;;;;13.10;62.85;99062.50;7633033;32;37890;-81
2023/03/25 08:04:35;;;;;;;3.90;2.58;;;;;;;13.55;61.77;99062.63;7631994;32;37822;-81
2023/03/25 08:08:51;;;;;;;4.45;2.60;;;;;;;13.75;60.44;99058.59;7633115;32;39967;-80
2023/03/25 08:13:07;;;;;;;3.30;2.20;;;;;;;13.68;61.02;99059.03;7632888;32;40008;-80
2023/03/25 08:17:23;;;;;;;5.37;2.53;;;;;;;13.71;60.35;99043.88;7632963;32;38780;-80
2023/03/25 08:21:41;;;;;;;3.00;2.03;;;;;;;14.22;59.11;99037.12;7632863;32;37943;-81
2023/03/25 08:25:57;;;;;;;5.00;2.47;;;;;;;14.28;58.19;99038.63;7632674;32;39560;-80
2023/03/25 08:30:14;;;;;;;4.22;2.03;;;;;;;14.81;57.76;99036.94;7632539;32;40000;-80
2023/03/25 08:34:33;;;;;;;1.95;1.67;;;;;;;15.10;54.95;99021.03;7631867;32;38136;-80
2023/03/25 08:38:50;;;;;;;2.35;1.77;;;;;;;14.99;55.02;99018.56;7632666;32;37179;-80
2023/03/25 08:43:06;;;;;;;3.20;2.00;;;;;;;15.54;53.27;99013.62;7632418;32;39426;-80
2023/03/25 08:47:22;;;;;;;3.58;1.90;;;;;;;15.99;52.55;99007.78;7632415;32;41155;-81
2023/03/25 08:51:39;;;;;;;5.47;1.65;;;;;;;16.77;52.52;99012.16;7632421;32;37997;-80
2023/03/25 08:55:56;;;;;;;2.12;1.80;;;;;;;16.41;49.81;99020.91;7632632;32;37177;-80
2023/03/25 09:00:13;;;;;;;6.43;2.28;;;;;;;15.97;49.53;99021.03;7619083;32;39017;-81
2023/03/25 09:04:30;;;;;;;3.28;2.20;;;;;;;16.33;50.19;99017.03;7631192;32;39855;-81
2023/03/25 09:08:46;;;;;;;4.87;2.05;;;;;;;16.74;48.95;98999.06;7632108;32;38657;-81
2023/03/25 09:13:05;;;;;;;3.08;2.10;;;;;;;17.16;49.29;98988.16;7632203;32;36996;-80
2023/03/25 09:17:21;;;;;;;4.65;2.47;;;;;;;17.31;47.14;99005.22;7631243;32;40196;-81
2023/03/25 09:21:38;;;;;;;5.82;2.28;;;;;;;17.60;46.98;99002.37;7632201;32;40766;-81
2023/03/25 09:25:55;;;;;;;4.70;2.50;;;;;;;17.14;48.55;99000.63;7632117;32;37930;-82
2023/03/25 09:30:12;;;;;;;7.35;2.35;;;;;;;17.64;46.23;98991.47;7632020;32;37925;-82
2023/03/25 09:34:28;;;;;;;7.18;2.70;;;;;;;17.38;45.86;99011.00;7632152;32;40162;-81
2023/03/25 09:38:45;;;;;;;5.45;2.28;;;;;;;17.10;46.58;99011.50;7632025;32;40028;-81
2023/03/25 09:43:20;;;;;;;7.85;2.42;;;;;;;17.91;46.05;98995.63;7631634;32;37889;-81
2023/03/25 09:47:37;;;;;;;3.25;2.15;;;;;;;18.12;44.34;98992.78;7630774;32;37119;-81
2023/03/25 09:51:54;;;;;;;5.50;2.25;;;;;;;18.00;44.04;98987.25;7631851;32;40189;-81
2023/03/25 09:56:23;;;;;;;2.53;1.90;;;;;;;18.95;43.63;98998.28;7631870;32;39638;-81
2023/03/25 10:00:39;;;;;;;4.12;2.00;;;;;;;18.70;39.95;98994.72;7631838;32;38021;-82
2023/03/25 10:05:17;;;;;;;3.90;2.28;;;;;;;18.09;42.27;98989.91;7631762;32;37094;-81
2023/03/25 10:09:43;;;;;;;4.53;1.92;;;;;;;18.05;42.84;99003.59;7631564;32;39248;-81
2023/03/25 10:14:18;;;;;;;8.30;2.08;;;;;;;18.45;42.91;98997.44;7631402;32;40560;-81
2023/03/25 10:18:49;;;;;;;6.78;2.50;;;;;;;17.72;41.46;99003.56;7630320;32;37870;-80
2023/03/25 10:23:33;;;;;;;3.35;2.10;;;;;;;18.05;41.41;99005.53;7631439;32;37842;-81
2023/03/25 10:27:51;;;;;;;;;;;;;;;17.48;42.60;99015.28;7631853;32;40210;-81
2023/03/25 10:32:22;;;;;;;2.80;2.00;;;;;;;16.53;43.46;99015.53;7631460;32;40003;-80
2023/03/25 10:36:56;;;;;;;4.15;2.08;;;;;;;16.06;45.44;99018.28;7630102;32;38417;-80
2023/03/25 10:41:37;;;;;;;4.70;2.33;;;;;;;17.19;44.96;99006.75;7630038;32;37746;-81
2023/03/25 10:46:15;;;;;;;3.90;1.87;;;;;;;16.90;42.48;99004.81;7629869;32;39314;-82
2023/03/25 10:50:32;;;;;;;3.35;1.77;;;;;;;16.70;44.48;99012.69;7624246;32;40762;-81
2023/03/25 10:54:53;;;;;;;4.75;2.15;;;;;;;16.76;43.35;99029.00;7630682;32;38537;-82
2023/03/25 10:59:40;;;;;;;4.40;1.87;;;;;;;16.06;44.15;99019.06;7634000;32;37223;-81
2023/03/25 11:03:59;;;;;;;7.37;2.65;;;;;;;15.66;44.55;99035.75;7631718;32;39494;-82
2023/03/25 11:08:15;;;;;;;5.20;2.42;;;;;;;15.81;45.17;99019.94;7632611;32;38910;-81
2023/03/25 11:12:45;;;;;;;5.60;2.40;;;;;;;15.82;44.80;99029.78;7632847;32;38632;-81
2023/03/25 11:17:04;;;;;;;3.75;2.12;;;;;;;15.50;45.63;99038.16;7633715;32;37194;-81
2023/03/25 11:21:21;;;;;;;3.80;2.17;;;;;;;15.28;45.34;99032.81;7632584;32;40462;-81
2023/03/25 11:25:40;;;;;;;5.50;3.22;;;;;;;15.65;44.00;99042.38;7633419;32;39598;-81
2023/03/25 11:30:07;;;;;;;6.10;2.95;;;;;;;15.71;43.01;99062.25;7632354;32;37726;-81
2023/03/25 11:34:24;;;;;;;4.25;1.75;;;;;;;15.79;42.94;99046.94;7632480;32;37130;-81
2023/03/25 11:38:40;;;;;;;5.80;2.60;;;;;;;15.69;42.15;99045.28;7633569;32;39375;-81
2023/03/25 11:42:59;;;;;;;2.92;1.85;;;;;;;15.57;42.75;99040.44;7633576;32;40846;-81
2023/03/25 11:47:20;;;;;;;3.75;1.40;;;;;;;15.72;41.77;99055.63;7632283;32;38538;-81
2023/03/25 11:51:36;;;;;;;2.03;1.33;;;;;;;15.82;41.85;99060.03;7632235;32;37886;-81
2023/03/25 11:56:05;;;;;;;3.62;1.37;;;;;;;14.75;43.33;99064.84;7633335;32;39189;-79
2023/03/25 12:00:28;;;;;;;4.78;2.50;;;;;;;14.80;42.87;99071.00;7632040;32;40746;-80
2023/03/25 12:05:11;;;;;;;7.53;3.43;;;;;;;14.83;42.50;99066.78;7633017;32;37941;-80
2023/03/25 12:09:30;;;;;;;3.67;2.10;;;;;;;14.83;43.14;99058.56;7632080;32;37049;-80
2023/03/25 12:14:10;;;;;;;4.05;2.45;;;;;;;14.41;45.24;99060.78;7632585;32;39425;-80
2023/03/25 12:18:47;;;;;;;3.53;1.58;;;;;;;14.92;45.54;99058.56;7632849;32;40749;-81
2023/03/25 12:23:41;;;;;;;3.58;1.75;;;;;;;15.07;44.74;99038.13;7632751;32;37471;-80
2023/03/25 12:28:22;;;;;;;4.47;1.70;;;;;;;14.95;44.17;99025.84;7632829;32;36858;-81
2023/03/25 12:33:02;;;;;;;3.10;1.73;;;;;;;15.35;42.81;99031.22;7619425;32;39468;-80
2023/03/25 12:37:36;;;;;;;2.05;1.35;;;;;;;16.04;42.28;99020.53;7627177;32;40061;-81
2023/03/25 12:41:55;;;;;;;2.78;1.40;;;;;;;15.34;41.57;99017.81;7631644;32;37868;-80
2023/03/25 12:46:31;;;;;;;2.75;1.42;;;;;;;15.91;40.39;98994.84;7632632;32;37047;-81
2023/03/25 12:51:09;;;;;;;2.65;1.50;;;;;;;16.27;39.48;98983.41;7630255;32;39767;-80
2023/03/25 12:55:37;;;;;;;3.22;1.20;;;;;;;16.07;39.88;98975.88;7605377;32;39710;-80
2023/03/25 13:00:08;;;;;;;2.05;1.42;;;;;;;16.14;39.07;98970.69;7620859;32;37677;-81
2023/03/25 13:04:50;;;;;;;2.47;1.17;;;;;;;16.30;38.73;98970.97;7626318;32;37782;-80
2023/03/25 13:09:11;;;;;;;;;;;;;;;16.38;38.35;98972.06;7632769;32;39288;-81
2023/03/25 13:13:30;;;;;;;9.27;5.47;;;;;;;16.62;38.32;98965.94;7632153;32;41214;-81
2023/03/25 13:18:02;;;;;;;13.38;8.68;;;;;;;16.65;37.23;98970.78;7630728;32;38671;-81
2023/03/25 13:22:27;;;;;;;5.47;3.75;;;;;;;16.86;37.17;98957.87;7632394;32;37697;-81
2023/03/25 13:26:46;;;;;;;5.03;1.80;;;;;;;16.53;38.55;98960.50;7630648;32;39361;-82
2023/03/25 13:31:03;;;;;;;5.93;2.95;;;;;;;16.53;37.55;98964.03;7632213;32;42081;-82
2023/03/25 13:35:36;;;;;;;1.50;1.40;;;;;;;16.12;40.32;98967.47;7630439;32;38664;-82
2023/03/25 13:40:13;;;;;;;2.20;1.45;;;;;;;16.07;38.80;98971.19;7630576;32;37365;-81
2023/03/25 13:44:38;;;;;;;4.87;1.42;;;;;;;16.01;38.74;98977.22;7630924;32;39355;-81
2023/03/25 13:48:57;;;;;;;4.37;1.67;;;;;;;15.85;38.68;98976.91;7630825;32;39971;-81
2023/03/25 13:53:19;;;;;;;5.28;1.70;;;;;;;16.03;39.13;98967.50;7631784;32;38044;-81
2023/03/25 13:57:45;;;;;;;3.10;1.37;;;;;;;16.22;37.89;98966.31;7630744;32;37971;-81
2023/03/25 14:02:20;;;;;;;8.98;4.35;;;;;;;16.13;36.78;98969.88;7607437;32;39370;-82
2023/03/25 14:07:08;;;;;;;2.75;1.90;;;;;;;15.92;38.04;98975.28;7631484;32;40907;-81
2023/03/25 14:11:39;;;;;;;0.90;0.90;;;;;;;16.63;37.52;98959.31;7628849;32;37597;-82
2023/03/25 14:16:11;;;;;;;2.78;1.35;;;;;;;16.50;36.48;98964.69;7630924;32;37233;-82
2023/03/25 14:20:36;;;;;;;4.72;1.60;;;;;;;17.39;34.85;98963.03;7629613;32;40126;-80
2023/03/25 14:24:57;;;;;;;2.87;1.25;;;;;;;17.29;35.03;98963.44;7627534;32;40030;-83
2023/03/25 14:29:39;;;;;;;5.50;1.33;;;;;;;16.28;37.23;98973.22;7628799;32;38790;-82
2023/03/25 14:34:02;;;;;;;3.80;1.60;;;;;;;16.29;38.43;98972.87;7629256;32;36895;-82
2023/03/25 14:38:20;;;;;;;2.05;1.10;;;;;;;15.64;39.09;98977.56;7630517;32;40562;-82
2023/03/25 14:42:57;;;;;;;2.55;1.50;;;;;;;15.36;38.40;98975.16;7630859;32;40842;-81
2023/03/25 14:47:19;;;;;;;3.78;2.00;;;;;;;15.41;37.82;98965.94;7631127;32;38563;-81
2023/03/25 14:51:41;;;;;;;4.45;1.40;;;;;;;15.66;35.54;98978.06;7630789;32;37098;-81
2023/03/25 14:56:01;;;;;;;2.83;1.15;;;;;;;15.57;35.53;98985.50;7630808;32;39449;-81
2023/03/25 15:00:32;;;;;;;5.90;1.70;;;;;;;15.31;36.17;98978.06;7629460;32;40870;-81
2023/03/25 15:04:58;;;;;;;2.97;1.40;;;;;;;15.69;35.33;98982.09;7630454;32;38364;-82
2023/03/25 15:09:18;;;;;;;5.95;1.20;;;;;;;16.29;34.54;98961.09;7629257;32;37337;-83
2023/03/25 15:13:39;;;;;;;2.55;1.50;;;;;;;15.87;35.59;98967.22;7614141;32;39885;-81
2023/03/25 15:17:55;;;;;;;5.12;1.90;;;;;;;15.75;36.80;98964.34;7614921;32;40190;-81
2023/03/25 15:22:21;;;;;;;3.37;1.70;;;;;;;15.22;38.12;98969.03;7604102;32;37720;-82
2023/03/25 15:26:40;;;;;;;2.80;1.40;;;;;;;15.14;39.37;98965.16;7604047;32;36822;-81
2023/03/25 15:31:01;;;;;;;7.80;1.52;;;;;;;14.85;37.69;98971.25;7603875;32;39476;-81
2023/03/25 15:35:30;;;;;;;4.05;1.80;;;;;;;15.04;37.80;98954.50;7614597;32;40824;-81
2023/03/25 15:39:58;;;;;;;2.50;1.40;;;;;;;15.33;38.14;98959.34;7603604;32;38454;-82
2023/03/25 15:44:48;;;;;;;5.70;1.30;;;;;;;15.56;36.31;98957.22;7606779;32;37864;-83
2023/03/25 15:49:42;;;;;;;3.47;1.05;;;;;;;15.83;33.12;98951.69;7607182;32;39401;-82
2023/03/25 15:54:06;;;;;;;2.67;1.60;;;;;;;16.04;32.05;98966.38;7606844;32;39788;-83
2023/03/25 15:58:40;;;;;;;2.22;1.40;;;;;;;16.34;33.76;98960.91;7607161;32;37898;-82
2023/03/25 16:03:02;;;;;;;3.42;1.50;;;;;;;16.13;33.82;98964.37;7607364;32;37061;-82
2023/03/25 16:07:23;;;;;;;5.68;1.60;;;;;;;15.95;34.66;98963.66;7607005;32;39146;-82
2023/03/25 16:11:42;;;;;;;2.30;1.00;;;;;;;16.13;33.82;98947.88;7622623;32;39962;-82
2023/03/25 16:16:00;;;;;;;2.55;1.08;;;;;;;16.00;34.76;98954.41;7633007;32;37611;-82
2023/03/25 16:20:20;;;;;;;2.25;1.10;;;;;;;16.44;33.66;98952.28;7633035;32;37139;-82
2023/03/25 16:24:37;;;;;;;2.83;1.15;;;;;;;16.49;32.53;98960.34;7631881;32;39833;-82
2023/03/25 16:29:05;;;;;;;3.10;0.98;;;;;;;18.54;29.84;98939.38;7632739;32;40958;-82
2023/03/25 16:33:30;;;;;;;2.53;0.90;;;;;;;18.64;29.33;98941.66;7632766;32;37968;-82
2023/03/25 16:37:46;;;;;;;2.37;1.30;;;;;;;19.97;26.25;98942.78;7632967;32;38116;-82
2023/03/25 16:42:18;;;;;;;3.25;1.20;;;;;;;20.05;25.36;98943.75;7631617;32;40054;-82
2023/03/25 16:46:36;;;;;;;2.67;1.52;;;;;;;19.18;25.92;98951.63;7631651;32;39994;-81
2023/03/25 16:50:54;;;;;;;7.00;2.40;;;;;;;17.76;27.54;98949.37;7631405;32;38716;-82
2023/03/25 16:55:25;;;;;;;5.20;1.60;;;;;;;16.41;29.97;98969.44;7630892;32;37119;-82
2023/03/25 16:59:44;;;;;;;2.15;1.25;;;;;;;16.31;30.90;98967.06;7632570;32;40085;-82
2023/03/25 17:04:18;;;;;;;2.33;1.20;;;;;;;15.49;33.91;98983.56;7631440;32;40179;-82
2023/03/25 17:08:35;;;;;;;4.93;2.25;;;;;;;14.80;33.84;98985.13;7618845;32;38721;-82
2023/03/25 17:12:58;;;;;;;3.55;1.25;;;;;;;14.80;33.90;98985.13;7630990;32;37742;-82
2023/03/25 17:17:14;;;;;;;5.97;1.15;;;;;;;14.92;34.46;98988.06;7631298;32;39449;-82
2023/03/25 17:21:32;;;;;;;2.00;1.60;;;;;;;14.65;34.00;98989.13;7632122;32;41031;-82
2023/03/25 17:25:57;;;;;;;5.10;2.20;;;;;;;14.71;34.43;98993.34;7631115;32;37254;-82
2023/03/25 17:30:20;;;;;;;3.47;1.70;;;;;;;14.59;34.88;98991.22;7632214;32;37037;-81
2023/03/25 17:34:44;;;;;;;10.73;3.40;;;;;;;14.50;35.94;99006.78;7632493;32;39934;-80
2023/03/25 17:39:02;;;;;;;4.60;2.12;;;;;;;14.14;36.61;98996.78;7630683;32;40763;-81
2023/03/25 17:43:21;;;;;;;9.57;2.30;;;;;;;13.98;38.02;98998.31;7629714;32;37632;-78
2023/03/25 17:47:37;;;;;;;6.97;2.60;;;;;;;14.07;39.53;99004.63;7630290;32;37546;-83
2023/03/25 17:51:57;;;;;;;6.82;3.05;;;;;;;14.33;36.45;98999.31;7631673;32;38341;-81
2023/03/25 17:56:16;;;;;;;9.25;4.15;;;;;;;14.42;36.11;99008.38;7631138;32;40082;-83
2023/03/25 18:00:34;;;;;;;12.77;4.55;;;;;;;14.53;35.81;99006.16;7628138;32;37532;-80
2023/03/25 18:04:50;;;;;;;8.88;3.33;;;;;;;14.41;36.57;99019.66;7621274;32;39558;-82
2023/03/25 18:09:15;;;;;;;6.45;2.80;;;;;;;14.49;35.71;99018.06;7631595;32;39762;-81
2023/03/25 18:13:32;;;;;;;6.40;2.22;;;;;;;14.39;35.75;99021.91;7630115;32;39826;-82
2023/03/25 18:17:50;;;;;;;4.07;2.30;;;;;;;14.39;35.41;99035.63;7630840;32;38044;-82
2023/03/25 18:22:10;;;;;;;4.32;2.03;;;;;;;14.27;35.32;99037.00;7631310;32;37673;-81
2023/03/25 18:26:35;;;;;;;6.95;2.72;;;;;;;14.38;35.21;99044.97;7631016;32;39793;-81
2023/03/25 18:30:58;;;;;;;6.22;2.50;;;;;;;14.32;35.63;99051.72;7630693;32;40020;-80
2023/03/25 18:35:17;;;;;;;2.85;1.80;;;;;;;14.21;36.08;99068.44;7630763;32;37971;-82
2023/03/25 18:39:33;;;;;;;7.25;2.12;;;;;;;14.13;35.94;99071.13;7630238;32;37711;-83
2023/03/25 18:43:50;;;;;;;6.00;3.10;;;;;;;13.87;36.13;99077.22;7630235;32;39402;-81
2023/03/25 18:48:14;;;;;;;5.85;3.03;;;;;;;13.86;35.92;99092.84;7630537;32;39300;-81
2023/03/25 18:52:32;;;;;;;5.80;2.92;;;;;;;13.75;36.03;99096.16;7630789;32;38794;-83
2023/03/25 18:56:48;;;;;;;7.10;2.70;;;;;;;13.86;35.74;99092.84;7630544;32;37329;-81
2023/03/25 19:01:06;;;;;;;6.18;2.37;;;;;;;13.75;36.15;99104.38;7630064;32;39275;-82
2023/03/25 19:05:23;;;;;;;5.75;2.95;;;;;;;13.82;36.16;99110.22;7630054;32;39959;-81
2023/03/25 19:09:40;;;;;;;6.87;3.67;;;;;;;13.44;36.99;99116.81;7629705;32;38036;-82
2023/03/25 19:13:56;;;;;;;11.75;4.35;;;;;;;13.55;36.89;99114.66;7629859;32;37961;-85
2023/03/25 19:18:18;;;;;;;10.98;4.57;;;;;;;13.48;37.17;99112.31;7631737;32;40045;-82
2023/03/25 19:22:35;;;;;;;9.60;3.83;;;;;;;13.63;37.60;99102.97;7633640;32;39950;-81
2023/03/25 19:26:51;;;;;;;6.30;2.97;;;;;;;13.61;37.35;99104.41;7633426;32;38543;-80
2023/03/25 19:31:10;;;;;;;8.02;3.35;;;;;;;13.53;38.00;99101.25;7632093;32;37222;-81
2023/03/25 19:35:27;;;;;;;9.18;3.28;;;;;;;13.34;39.03;99095.94;7632375;32;39410;-82
2023/03/25 19:39:45;;;;;;;5.35;2.67;;;;;;;13.34;39.49;99136.19;7631564;32;40949;-84
2023/03/25 19:44:01;;;;;;;7.07;3.40;;;;;;;12.26;42.74;99154.56;7633010;32;37916;-82
2023/03/25 19:48:18;;;;;;;9.13;3.10;;;;;;;12.49;44.00;99152.03;7633216;32;37766;-84
2023/03/25 19:52:34;;;;;;;4.68;2.25;;;;;;;12.31;44.03;99151.75;7633050;32;40115;-82
2023/03/25 19:56:50;;;;;;;5.05;2.53;;;;;;;11.91;44.61;99155.94;7633261;32;41187;-81
2023/03/25 20:01:07;;;;;;;5.43;2.60;;;;;;;11.54;45.07;99147.44;7633103;32;38155;-81
2023/03/25 20:05:24;;;;;;;4.20;1.77;;;;;;;11.79;43.95;99140.78;7633249;32;37728;-83
2023/03/25 20:09:42;;;;;;;4.55;1.90;;;;;;;11.40;44.77;99144.59;7632771;32;40097;-81
2023/03/25 20:13:59;;;;;;;3.05;1.50;;;;;;;11.45;44.80;99136.34;7632872;32;40813;-83
2023/03/25 20:18:17;;;;;;;1.15;1.12;;;;;;;10.97;46.45;99149.22;7632889;32;37080;-81
2023/03/25 20:22:37;;;;;;;2.62;1.58;;;;;;;11.18;46.95;99126.06;7632801;32;37030;-83
2023/03/25 20:26:54;;;;;;;3.28;1.30;;;;;;;10.83;47.52;99132.72;7631802;32;39299;-84
2023/03/25 20:31:16;;;;;;;2.03;1.33;;;;;;;11.20;46.40;99133.94;7631826;32;39438;-82
2023/03/25 20:35:32;;;;;;;1.10;1.10;;;;;;;10.87;47.95;99148.22;7632540;32;38008;-82